sensor_id;sensor_type;location;lat;lon;timestamp;P1;durP1;ratioP1;P2;durP2;ratioP2
53062;SDS011;40529;52.172;10.548;2022-09-09T00:03:57;2.03;;;1.83;;
53062;SDS011;40529;52.172;10.548;2022-09-09T00:11:29;2.80;;;1.60;;
53062;SDS011;40529;52.172;10.548;2022-09-09T00:13:58;3.20;;;1.98;;
53062;SDS011;40529;52.172;10.548;2022-09-09T00:16:30;3.00;;;1.70;;
53062;SDS011;40529;52.172;10.548;2022-09-09T00:19:15;3.42;;;1.90;;
53062;SDS011;40529;52.172;10.548;2022-09-09T00:24:24;4.18;;;2.05;;
53062;SDS011;40529;52.172;10.548;2022-09-09T00:26:53;4.85;;;2.13;;
53062;SDS011;40529;52.172;10.548;2022-09-09T00:29:33;4.10;;;1.80;;
53062;SDS011;40529;52.172;10.548;2022-09-09T00:32:11;3.42;;;1.52;;
53062;SDS011;40529;52.172;10.548;2022-09-09T00:34:38;4.72;;;1.77;;
53062;SDS011;40529;52.172;10.548;2022-09-09T00:37:08;2.10;;;1.45;;
53062;SDS011;40529;52.172;10.548;2022-09-09T00:39:36;5.50;;;1.65;;
53062;SDS011;40529;52.172;10.548;2022-09-09T00:42:14;3.28;;;1.45;;
53062;SDS011;40529;52.172;10.548;2022-09-09T00:45:08;5.00;;;1.70;;
53062;SDS011;40529;52.172;10.548;2022-09-09T00:55:33;3.35;;;1.77;;
53062;SDS011;40529;52.172;10.548;2022-09-09T00:58:01;4.18;;;1.70;;
53062;SDS011;40529;52.172;10.548;2022-09-09T01:00:28;3.20;;;1.73;;
53062;SDS011;40529;52.172;10.548;2022-09-09T01:05:30;3.30;;;1.80;;
53062;SDS011;40529;52.172;10.548;2022-09-09T01:08:00;3.90;;;1.92;;
53062;SDS011;40529;52.172;10.548;2022-09-09T01:10:39;2.75;;;1.55;;
53062;SDS011;40529;52.172;10.548;2022-09-09T01:13:22;1.92;;;1.60;;
53062;SDS011;40529;52.172;10.548;2022-09-09T01:15:49;7.28;;;2.17;;
53062;SDS011;40529;52.172;10.548;2022-09-09T01:18:19;4.15;;;1.75;;
53062;SDS011;40529;52.172;10.548;2022-09-09T01:28:37;4.50;;;1.77;;
53062;SDS011;40529;52.172;10.548;2022-09-09T01:31:04;3.58;;;2.08;;
53062;SDS011;40529;52.172;10.548;2022-09-09T01:33:31;5.32;;;1.88;;
53062;SDS011;40529;52.172;10.548;2022-09-09T01:38:27;6.73;;;1.73;;
53062;SDS011;40529;52.172;10.548;2022-09-09T01:40:53;2.42;;;1.80;;
53062;SDS011;40529;52.172;10.548;2022-09-09T01:43:20;3.60;;;1.77;;
53062;SDS011;40529;52.172;10.548;2022-09-09T01:45:46;3.30;;;1.95;;
53062;SDS011;40529;52.172;10.548;2022-09-09T01:48:15;5.72;;;1.60;;
53062;SDS011;40529;52.172;10.548;2022-09-09T01:50:42;2.70;;;1.80;;
53062;SDS011;40529;52.172;10.548;2022-09-09T01:53:08;4.18;;;1.83;;
53062;SDS011;40529;52.172;10.548;2022-09-09T01:55:38;3.63;;;1.60;;
53062;SDS011;40529;52.172;10.548;2022-09-09T02:00:30;2.90;;;1.73;;
53062;SDS011;40529;52.172;10.548;2022-09-09T02:03:12;3.83;;;1.90;;
53062;SDS011;40529;52.172;10.548;2022-09-09T02:06:30;3.38;;;1.70;;
53062;SDS011;40529;52.172;10.548;2022-09-09T02:11:15;3.28;;;1.90;;
53062;SDS011;40529;52.172;10.548;2022-09-09T02:13:42;4.57;;;2.15;;
53062;SDS011;40529;52.172;10.548;2022-09-09T02:16:18;2.13;;;1.58;;
53062;SDS011;40529;52.172;10.548;2022-09-09T02:18:51;2.60;;;2.40;;
53062;SDS011;40529;52.172;10.548;2022-09-09T02:21:19;3.30;;;1.67;;
53062;SDS011;40529;52.172;10.548;2022-09-09T02:23:47;3.78;;;2.05;;
53062;SDS011;40529;52.172;10.548;2022-09-09T02:28:45;3.08;;;1.70;;
53062;SDS011;40529;52.172;10.548;2022-09-09T02:31:12;3.78;;;1.95;;
53062;SDS011;40529;52.172;10.548;2022-09-09T02:33:41;3.22;;;1.70;;
53062;SDS011;40529;52.172;10.548;2022-09-09T02:36:08;2.33;;;1.80;;
53062;SDS011;40529;52.172;10.548;2022-09-09T02:38:37;3.70;;;1.58;;
53062;SDS011;40529;52.172;10.548;2022-09-09T02:41:05;2.28;;;1.13;;
53062;SDS011;40529;52.172;10.548;2022-09-09T02:43:34;4.55;;;1.92;;
53062;SDS011;40529;52.172;10.548;2022-09-09T02:46:03;3.83;;;2.50;;
53062;SDS011;40529;52.172;10.548;2022-09-09T02:56:29;3.97;;;1.88;;
53062;SDS011;40529;52.172;10.548;2022-09-09T02:58:58;4.68;;;2.17;;
53062;SDS011;40529;52.172;10.548;2022-09-09T03:01:24;3.67;;;1.98;;
53062;SDS011;40529;52.172;10.548;2022-09-09T03:03:51;3.10;;;1.98;;
53062;SDS011;40529;52.172;10.548;2022-09-09T03:06:17;4.30;;;2.00;;
53062;SDS011;40529;52.172;10.548;2022-09-09T03:08:43;5.65;;;2.08;;
53062;SDS011;40529;52.172;10.548;2022-09-09T03:11:09;3.38;;;2.15;;
53062;SDS011;40529;52.172;10.548;2022-09-09T03:13:35;6.10;;;2.40;;
53062;SDS011;40529;52.172;10.548;2022-09-09T03:16:02;3.60;;;2.15;;
53062;SDS011;40529;52.172;10.548;2022-09-09T03:18:29;4.38;;;2.38;;
53062;SDS011;40529;52.172;10.548;2022-09-09T03:20:55;6.03;;;2.20;;
53062;SDS011;40529;52.172;10.548;2022-09-09T03:23:23;4.30;;;2.25;;
53062;SDS011;40529;52.172;10.548;2022-09-09T03:25:49;4.28;;;2.22;;
53062;SDS011;40529;52.172;10.548;2022-09-09T03:28:17;4.78;;;2.17;;
53062;SDS011;40529;52.172;10.548;2022-09-09T03:30:43;4.25;;;2.30;;
53062;SDS011;40529;52.172;10.548;2022-09-09T03:33:09;5.10;;;2.40;;
53062;SDS011;40529;52.172;10.548;2022-09-09T03:35:36;4.15;;;2.53;;
53062;SDS011;40529;52.172;10.548;2022-09-09T03:38:02;6.13;;;2.47;;
53062;SDS011;40529;52.172;10.548;2022-09-09T03:40:28;4.95;;;2.50;;
53062;SDS011;40529;52.172;10.548;2022-09-09T03:42:54;5.53;;;2.70;;
53062;SDS011;40529;52.172;10.548;2022-09-09T03:45:20;8.45;;;3.05;;
53062;SDS011;40529;52.172;10.548;2022-09-09T03:47:46;7.20;;;3.17;;
53062;SDS011;40529;52.172;10.548;2022-09-09T03:50:12;5.32;;;2.90;;
53062;SDS011;40529;52.172;10.548;2022-09-09T03:52:38;3.72;;;2.60;;
53062;SDS011;40529;52.172;10.548;2022-09-09T03:55:06;3.85;;;2.92;;
53062;SDS011;40529;52.172;10.548;2022-09-09T03:57:32;12.43;;;4.28;;
53062;SDS011;40529;52.172;10.548;2022-09-09T04:00:00;4.78;;;2.97;;
53062;SDS011;40529;52.172;10.548;2022-09-09T04:02:26;5.20;;;3.00;;
53062;SDS011;40529;52.172;10.548;2022-09-09T04:04:52;4.25;;;3.00;;
53062;SDS011;40529;52.172;10.548;2022-09-09T04:07:19;5.80;;;3.00;;
53062;SDS011;40529;52.172;10.548;2022-09-09T04:09:45;8.05;;;3.55;;
53062;SDS011;40529;52.172;10.548;2022-09-09T04:12:10;7.43;;;3.03;;
53062;SDS011;40529;52.172;10.548;2022-09-09T04:14:38;6.13;;;2.67;;
53062;SDS011;40529;52.172;10.548;2022-09-09T04:17:04;7.20;;;3.13;;
53062;SDS011;40529;52.172;10.548;2022-09-09T04:19:31;6.35;;;3.35;;
53062;SDS011;40529;52.172;10.548;2022-09-09T04:21:57;7.15;;;3.53;;
53062;SDS011;40529;52.172;10.548;2022-09-09T04:24:24;4.90;;;2.95;;
53062;SDS011;40529;52.172;10.548;2022-09-09T04:26:52;7.63;;;3.10;;
53062;SDS011;40529;52.172;10.548;2022-09-09T04:29:18;6.03;;;3.53;;
53062;SDS011;40529;52.172;10.548;2022-09-09T04:31:44;6.00;;;3.13;;
53062;SDS011;40529;52.172;10.548;2022-09-09T04:34:10;10.07;;;3.38;;
53062;SDS011;40529;52.172;10.548;2022-09-09T04:36:36;9.57;;;3.30;;
53062;SDS011;40529;52.172;10.548;2022-09-09T04:39:02;4.70;;;3.00;;
53062;SDS011;40529;52.172;10.548;2022-09-09T04:41:28;6.85;;;3.00;;
53062;SDS011;40529;52.172;10.548;2022-09-09T04:43:56;7.45;;;3.53;;
53062;SDS011;40529;52.172;10.548;2022-09-09T04:46:22;4.97;;;3.13;;
53062;SDS011;40529;52.172;10.548;2022-09-09T04:48:49;11.50;;;3.95;;
53062;SDS011;40529;52.172;10.548;2022-09-09T04:51:15;7.53;;;3.50;;
53062;SDS011;40529;52.172;10.548;2022-09-09T04:53:41;7.35;;;3.20;;
53062;SDS011;40529;52.172;10.548;2022-09-09T04:58:35;5.60;;;2.95;;
53062;SDS011;40529;52.172;10.548;2022-09-09T05:01:08;5.00;;;2.83;;
53062;SDS011;40529;52.172;10.548;2022-09-09T05:03:34;5.88;;;3.53;;
53062;SDS011;40529;52.172;10.548;2022-09-09T05:06:07;6.15;;;2.95;;
53062;SDS011;40529;52.172;10.548;2022-09-09T05:08:35;10.80;;;3.70;;
53062;SDS011;40529;52.172;10.548;2022-09-09T05:11:01;6.00;;;2.95;;
53062;SDS011;40529;52.172;10.548;2022-09-09T05:13:28;6.40;;;2.80;;
53062;SDS011;40529;52.172;10.548;2022-09-09T05:15:56;5.57;;;2.90;;
53062;SDS011;40529;52.172;10.548;2022-09-09T05:18:22;6.22;;;2.88;;
53062;SDS011;40529;52.172;10.548;2022-09-09T05:20:49;6.97;;;3.00;;
53062;SDS011;40529;52.172;10.548;2022-09-09T05:23:16;6.18;;;3.50;;
53062;SDS011;40529;52.172;10.548;2022-09-09T05:25:42;7.80;;;3.10;;
53062;SDS011;40529;52.172;10.548;2022-09-09T05:28:08;9.48;;;3.72;;
53062;SDS011;40529;52.172;10.548;2022-09-09T05:30:36;8.68;;;3.72;;
53062;SDS011;40529;52.172;10.548;2022-09-09T05:33:02;5.80;;;3.05;;
53062;SDS011;40529;52.172;10.548;2022-09-09T05:35:28;10.55;;;3.45;;
53062;SDS011;40529;52.172;10.548;2022-09-09T05:37:58;5.85;;;3.38;;
53062;SDS011;40529;52.172;10.548;2022-09-09T05:42:50;9.00;;;3.10;;
53062;SDS011;40529;52.172;10.548;2022-09-09T05:45:17;10.35;;;3.00;;
53062;SDS011;40529;52.172;10.548;2022-09-09T05:47:44;5.38;;;2.60;;
53062;SDS011;40529;52.172;10.548;2022-09-09T05:50:10;7.28;;;2.58;;
53062;SDS011;40529;52.172;10.548;2022-09-09T05:52:37;5.88;;;2.80;;
53062;SDS011;40529;52.172;10.548;2022-09-09T05:55:04;6.07;;;2.70;;
53062;SDS011;40529;52.172;10.548;2022-09-09T05:57:30;6.22;;;3.00;;
53062;SDS011;40529;52.172;10.548;2022-09-09T05:59:56;5.63;;;2.90;;
53062;SDS011;40529;52.172;10.548;2022-09-09T06:02:22;7.43;;;2.65;;
53062;SDS011;40529;52.172;10.548;2022-09-09T06:04:48;4.78;;;2.50;;
53062;SDS011;40529;52.172;10.548;2022-09-09T06:07:14;7.25;;;3.20;;
53062;SDS011;40529;52.172;10.548;2022-09-09T06:09:40;9.20;;;3.00;;
53062;SDS011;40529;52.172;10.548;2022-09-09T06:12:06;7.10;;;3.05;;
53062;SDS011;40529;52.172;10.548;2022-09-09T06:14:33;5.57;;;3.10;;
53062;SDS011;40529;52.172;10.548;2022-09-09T06:16:59;7.13;;;2.72;;
53062;SDS011;40529;52.172;10.548;2022-09-09T06:19:25;7.55;;;2.33;;
53062;SDS011;40529;52.172;10.548;2022-09-09T06:21:51;5.95;;;2.35;;
53062;SDS011;40529;52.172;10.548;2022-09-09T06:24:17;4.78;;;2.45;;
53062;SDS011;40529;52.172;10.548;2022-09-09T06:26:44;5.80;;;2.95;;
53062;SDS011;40529;52.172;10.548;2022-09-09T06:29:11;5.90;;;2.47;;
53062;SDS011;40529;52.172;10.548;2022-09-09T06:31:37;3.15;;;2.13;;
53062;SDS011;40529;52.172;10.548;2022-09-09T06:34:04;7.35;;;2.72;;
53062;SDS011;40529;52.172;10.548;2022-09-09T06:36:31;6.38;;;2.50;;
53062;SDS011;40529;52.172;10.548;2022-09-09T06:38:58;7.68;;;2.50;;
53062;SDS011;40529;52.172;10.548;2022-09-09T06:41:26;5.68;;;2.25;;
53062;SDS011;40529;52.172;10.548;2022-09-09T06:43:52;5.43;;;2.13;;
53062;SDS011;40529;52.172;10.548;2022-09-09T06:46:30;4.13;;;1.92;;
53062;SDS011;40529;52.172;10.548;2022-09-09T06:48:58;3.72;;;1.90;;
53062;SDS011;40529;52.172;10.548;2022-09-09T06:51:28;4.22;;;2.08;;
53062;SDS011;40529;52.172;10.548;2022-09-09T06:53:55;6.85;;;2.30;;
53062;SDS011;40529;52.172;10.548;2022-09-09T06:56:26;4.75;;;1.92;;
53062;SDS011;40529;52.172;10.548;2022-09-09T06:58:53;5.65;;;1.90;;
53062;SDS011;40529;52.172;10.548;2022-09-09T07:01:23;4.15;;;1.50;;
53062;SDS011;40529;52.172;10.548;2022-09-09T07:03:50;6.68;;;1.70;;
53062;SDS011;40529;52.172;10.548;2022-09-09T07:06:21;6.80;;;1.98;;
53062;SDS011;40529;52.172;10.548;2022-09-09T07:08:55;5.82;;;1.65;;
53062;SDS011;40529;52.172;10.548;2022-09-09T07:11:23;6.47;;;1.90;;
53062;SDS011;40529;52.172;10.548;2022-09-09T07:13:50;5.60;;;1.75;;
53062;SDS011;40529;52.172;10.548;2022-09-09T07:16:17;5.20;;;2.00;;
53062;SDS011;40529;52.172;10.548;2022-09-09T07:18:44;4.10;;;1.60;;
53062;SDS011;40529;52.172;10.548;2022-09-09T07:21:11;6.68;;;1.70;;
53062;SDS011;40529;52.172;10.548;2022-09-09T07:23:37;8.40;;;2.33;;
53062;SDS011;40529;52.172;10.548;2022-09-09T07:26:14;9.43;;;1.85;;
53062;SDS011;40529;52.172;10.548;2022-09-09T07:28:40;4.90;;;1.50;;
53062;SDS011;40529;52.172;10.548;2022-09-09T07:31:07;2.85;;;1.30;;
53062;SDS011;40529;52.172;10.548;2022-09-09T07:33:38;4.30;;;1.17;;
53062;SDS011;40529;52.172;10.548;2022-09-09T07:36:14;4.53;;;1.20;;
53062;SDS011;40529;52.172;10.548;2022-09-09T07:38:41;3.38;;;1.35;;
53062;SDS011;40529;52.172;10.548;2022-09-09T07:41:10;5.10;;;1.00;;
53062;SDS011;40529;52.172;10.548;2022-09-09T07:43:38;3.90;;;1.50;;
53062;SDS011;40529;52.172;10.548;2022-09-09T07:46:05;4.30;;;1.33;;
53062;SDS011;40529;52.172;10.548;2022-09-09T07:48:31;4.68;;;1.40;;
53062;SDS011;40529;52.172;10.548;2022-09-09T07:51:08;2.85;;;0.93;;
53062;SDS011;40529;52.172;10.548;2022-09-09T07:53:36;2.42;;;1.17;;
53062;SDS011;40529;52.172;10.548;2022-09-09T07:56:07;4.13;;;1.30;;
53062;SDS011;40529;52.172;10.548;2022-09-09T07:58:34;2.67;;;1.27;;
53062;SDS011;40529;52.172;10.548;2022-09-09T08:01:00;4.82;;;1.13;;
53062;SDS011;40529;52.172;10.548;2022-09-09T08:03:31;2.85;;;0.82;;
53062;SDS011;40529;52.172;10.548;2022-09-09T08:06:00;2.60;;;0.90;;
53062;SDS011;40529;52.172;10.548;2022-09-09T08:08:26;4.18;;;1.00;;
53062;SDS011;40529;52.172;10.548;2022-09-09T08:10:52;5.97;;;1.00;;
53062;SDS011;40529;52.172;10.548;2022-09-09T08:13:18;2.65;;;0.88;;
53062;SDS011;40529;52.172;10.548;2022-09-09T08:15:44;3.75;;;0.93;;
53062;SDS011;40529;52.172;10.548;2022-09-09T08:18:10;4.13;;;0.90;;
53062;SDS011;40529;52.172;10.548;2022-09-09T08:20:36;4.75;;;1.10;;
53062;SDS011;40529;52.172;10.548;2022-09-09T08:23:03;4.10;;;1.10;;
53062;SDS011;40529;52.172;10.548;2022-09-09T08:25:29;3.17;;;0.80;;
53062;SDS011;40529;52.172;10.548;2022-09-09T08:27:55;5.70;;;1.10;;
53062;SDS011;40529;52.172;10.548;2022-09-09T08:30:21;4.97;;;1.10;;
53062;SDS011;40529;52.172;10.548;2022-09-09T08:32:48;2.55;;;0.95;;
53062;SDS011;40529;52.172;10.548;2022-09-09T08:35:16;7.38;;;1.52;;
53062;SDS011;40529;52.172;10.548;2022-09-09T08:37:42;4.85;;;1.30;;
53062;SDS011;40529;52.172;10.548;2022-09-09T08:40:10;2.20;;;0.80;;
53062;SDS011;40529;52.172;10.548;2022-09-09T08:42:44;7.38;;;1.27;;
53062;SDS011;40529;52.172;10.548;2022-09-09T08:50:35;3.58;;;0.63;;
53062;SDS011;40529;52.172;10.548;2022-09-09T08:55:50;5.05;;;0.80;;
53062;SDS011;40529;52.172;10.548;2022-09-09T08:58:20;4.40;;;1.20;;
53062;SDS011;40529;52.172;10.548;2022-09-09T09:07:15;6.45;;;1.05;;
53062;SDS011;40529;52.172;10.548;2022-09-09T09:09:41;3.50;;;0.80;;
53062;SDS011;40529;52.172;10.548;2022-09-09T09:11:59;3.53;;;1.00;;
53062;SDS011;40529;52.172;10.548;2022-09-09T09:14:31;5.75;;;0.70;;
53062;SDS011;40529;52.172;10.548;2022-09-09T09:17:03;2.53;;;1.00;;
53062;SDS011;40529;52.172;10.548;2022-09-09T09:19:30;4.47;;;1.23;;
53062;SDS011;40529;52.172;10.548;2022-09-09T09:27:15;3.65;;;0.93;;
53062;SDS011;40529;52.172;10.548;2022-09-09T09:29:41;5.05;;;0.90;;
53062;SDS011;40529;52.172;10.548;2022-09-09T09:32:13;3.35;;;0.98;;
53062;SDS011;40529;52.172;10.548;2022-09-09T09:34:40;4.90;;;1.13;;
53062;SDS011;40529;52.172;10.548;2022-09-09T09:37:12;3.78;;;0.80;;
53062;SDS011;40529;52.172;10.548;2022-09-09T09:39:42;3.92;;;0.80;;
53062;SDS011;40529;52.172;10.548;2022-09-09T09:42:11;3.20;;;0.75;;
53062;SDS011;40529;52.172;10.548;2022-09-09T09:44:39;4.70;;;0.80;;
53062;SDS011;40529;52.172;10.548;2022-09-09T09:47:15;3.75;;;0.98;;
53062;SDS011;40529;52.172;10.548;2022-09-09T09:49:54;8.88;;;0.90;;
53062;SDS011;40529;52.172;10.548;2022-09-09T09:52:25;4.20;;;1.00;;
53062;SDS011;40529;52.172;10.548;2022-09-09T09:54:52;3.30;;;1.02;;
53062;SDS011;40529;52.172;10.548;2022-09-09T09:57:21;6.32;;;1.35;;
53062;SDS011;40529;52.172;10.548;2022-09-09T09:59:49;5.40;;;1.00;;
53062;SDS011;40529;52.172;10.548;2022-09-09T10:02:31;4.10;;;1.10;;
53062;SDS011;40529;52.172;10.548;2022-09-09T10:08:13;5.18;;;0.88;;
53062;SDS011;40529;52.172;10.548;2022-09-09T10:13:09;2.63;;;0.90;;
53062;SDS011;40529;52.172;10.548;2022-09-09T10:23:18;2.42;;;0.80;;
53062;SDS011;40529;52.172;10.548;2022-09-09T10:31:25;3.72;;;0.80;;
53062;SDS011;40529;52.172;10.548;2022-09-09T10:36:22;4.85;;;1.00;;
53062;SDS011;40529;52.172;10.548;2022-09-09T10:41:50;3.55;;;1.02;;
53062;SDS011;40529;52.172;10.548;2022-09-09T10:44:26;3.15;;;0.73;;
53062;SDS011;40529;52.172;10.548;2022-09-09T10:57:57;2.72;;;0.73;;
53062;SDS011;40529;52.172;10.548;2022-09-09T11:00:24;3.78;;;1.00;;
53062;SDS011;40529;52.172;10.548;2022-09-09T11:03:00;3.42;;;0.90;;
53062;SDS011;40529;52.172;10.548;2022-09-09T11:05:38;5.50;;;0.95;;
53062;SDS011;40529;52.172;10.548;2022-09-09T11:08:11;2.75;;;0.70;;
53062;SDS011;40529;52.172;10.548;2022-09-09T11:10:39;3.05;;;1.10;;
53062;SDS011;40529;52.172;10.548;2022-09-09T11:13:11;2.67;;;0.75;;
53062;SDS011;40529;52.172;10.548;2022-09-09T11:15:50;4.55;;;0.73;;
53062;SDS011;40529;52.172;10.548;2022-09-09T11:18:21;3.30;;;0.73;;
53062;SDS011;40529;52.172;10.548;2022-09-09T11:20:49;2.60;;;0.82;;
53062;SDS011;40529;52.172;10.548;2022-09-09T11:23:17;3.55;;;0.68;;
53062;SDS011;40529;52.172;10.548;2022-09-09T11:25:55;5.63;;;0.80;;
53062;SDS011;40529;52.172;10.548;2022-09-09T11:33:55;2.13;;;0.70;;
53062;SDS011;40529;52.172;10.548;2022-09-09T11:41:41;5.63;;;0.80;;
53062;SDS011;40529;52.172;10.548;2022-09-09T11:44:11;4.10;;;0.70;;
53062;SDS011;40529;52.172;10.548;2022-09-09T11:46:38;3.67;;;0.93;;
53062;SDS011;40529;52.172;10.548;2022-09-09T11:49:06;2.65;;;0.82;;
53062;SDS011;40529;52.172;10.548;2022-09-09T11:51:47;4.78;;;0.82;;
53062;SDS011;40529;52.172;10.548;2022-09-09T11:54:30;2.00;;;0.60;;
53062;SDS011;40529;52.172;10.548;2022-09-09T11:56:57;6.25;;;0.90;;
53062;SDS011;40529;52.172;10.548;2022-09-09T11:59:23;3.03;;;0.60;;
53062;SDS011;40529;52.172;10.548;2022-09-09T12:01:58;4.88;;;0.80;;
53062;SDS011;40529;52.172;10.548;2022-09-09T12:06:56;3.67;;;0.98;;
53062;SDS011;40529;52.172;10.548;2022-09-09T12:09:31;4.72;;;0.98;;
53062;SDS011;40529;52.172;10.548;2022-09-09T12:12:06;3.45;;;0.77;;
53062;SDS011;40529;52.172;10.548;2022-09-09T12:17:20;2.75;;;0.60;;
53062;SDS011;40529;52.172;10.548;2022-09-09T12:19:47;4.50;;;0.82;;
53062;SDS011;40529;52.172;10.548;2022-09-09T12:22:22;3.88;;;0.70;;
53062;SDS011;40529;52.172;10.548;2022-09-09T12:27:40;6.25;;;1.10;;
53062;SDS011;40529;52.172;10.548;2022-09-09T12:30:11;3.40;;;0.90;;
53062;SDS011;40529;52.172;10.548;2022-09-09T12:32:37;3.08;;;0.93;;
53062;SDS011;40529;52.172;10.548;2022-09-09T12:37:40;2.85;;;0.63;;
53062;SDS011;40529;52.172;10.548;2022-09-09T12:42:46;2.42;;;0.70;;
53062;SDS011;40529;52.172;10.548;2022-09-09T12:45:16;4.47;;;1.00;;
53062;SDS011;40529;52.172;10.548;2022-09-09T12:50:15;2.90;;;0.82;;
53062;SDS011;40529;52.172;10.548;2022-09-09T12:52:41;4.72;;;0.85;;
53062;SDS011;40529;52.172;10.548;2022-09-09T12:55:15;2.05;;;0.80;;
53062;SDS011;40529;52.172;10.548;2022-09-09T12:57:41;3.58;;;0.60;;
53062;SDS011;40529;52.172;10.548;2022-09-09T13:00:12;2.83;;;0.52;;
53062;SDS011;40529;52.172;10.548;2022-09-09T13:02:47;2.72;;;0.73;;
53062;SDS011;40529;52.172;10.548;2022-09-09T13:05:18;2.67;;;0.60;;
53062;SDS011;40529;52.172;10.548;2022-09-09T13:07:45;2.88;;;0.60;;
53062;SDS011;40529;52.172;10.548;2022-09-09T13:10:12;1.85;;;0.65;;
53062;SDS011;40529;52.172;10.548;2022-09-09T13:12:38;3.28;;;0.50;;
53062;SDS011;40529;52.172;10.548;2022-09-09T13:15:10;3.58;;;0.85;;
53062;SDS011;40529;52.172;10.548;2022-09-09T13:17:36;3.65;;;0.82;;
53062;SDS011;40529;52.172;10.548;2022-09-09T13:20:03;3.60;;;0.85;;
53062;SDS011;40529;52.172;10.548;2022-09-09T13:22:32;2.22;;;0.70;;
53062;SDS011;40529;52.172;10.548;2022-09-09T13:25:00;3.53;;;0.60;;
53062;SDS011;40529;52.172;10.548;2022-09-09T13:27:32;3.05;;;0.65;;
53062;SDS011;40529;52.172;10.548;2022-09-09T13:29:59;5.80;;;0.70;;
53062;SDS011;40529;52.172;10.548;2022-09-09T13:32:25;5.35;;;1.08;;
53062;SDS011;40529;52.172;10.548;2022-09-09T13:34:52;5.47;;;0.70;;
53062;SDS011;40529;52.172;10.548;2022-09-09T13:37:38;3.92;;;1.17;;
53062;SDS011;40529;52.172;10.548;2022-09-09T13:40:06;4.70;;;0.75;;
53062;SDS011;40529;52.172;10.548;2022-09-09T13:42:41;2.78;;;0.82;;
53062;SDS011;40529;52.172;10.548;2022-09-09T13:45:17;4.53;;;0.80;;
53062;SDS011;40529;52.172;10.548;2022-09-09T13:47:48;4.53;;;0.70;;
53062;SDS011;40529;52.172;10.548;2022-09-09T13:52:47;2.40;;;0.40;;
53062;SDS011;40529;52.172;10.548;2022-09-09T13:55:14;3.88;;;0.65;;
53062;SDS011;40529;52.172;10.548;2022-09-09T13:57:49;1.50;;;0.40;;
53062;SDS011;40529;52.172;10.548;2022-09-09T14:00:15;2.53;;;0.45;;
53062;SDS011;40529;52.172;10.548;2022-09-09T14:02:41;1.67;;;0.55;;
53062;SDS011;40529;52.172;10.548;2022-09-09T14:05:09;3.10;;;0.80;;
53062;SDS011;40529;52.172;10.548;2022-09-09T14:07:36;3.55;;;0.60;;
53062;SDS011;40529;52.172;10.548;2022-09-09T14:10:03;1.67;;;0.50;;
53062;SDS011;40529;52.172;10.548;2022-09-09T14:12:29;2.85;;;0.45;;
53062;SDS011;40529;52.172;10.548;2022-09-09T14:14:55;4.43;;;0.77;;
53062;SDS011;40529;52.172;10.548;2022-09-09T14:17:22;2.88;;;0.73;;
53062;SDS011;40529;52.172;10.548;2022-09-09T14:19:50;4.13;;;0.73;;
53062;SDS011;40529;52.172;10.548;2022-09-09T14:22:16;1.90;;;0.50;;
53062;SDS011;40529;52.172;10.548;2022-09-09T14:24:42;1.60;;;0.60;;
53062;SDS011;40529;52.172;10.548;2022-09-09T14:27:08;3.42;;;0.40;;
53062;SDS011;40529;52.172;10.548;2022-09-09T14:29:34;1.25;;;0.50;;
53062;SDS011;40529;52.172;10.548;2022-09-09T14:32:00;2.42;;;0.77;;
53062;SDS011;40529;52.172;10.548;2022-09-09T14:34:26;2.15;;;0.60;;
53062;SDS011;40529;52.172;10.548;2022-09-09T14:36:52;3.80;;;0.65;;
53062;SDS011;40529;52.172;10.548;2022-09-09T14:39:18;2.38;;;0.50;;
53062;SDS011;40529;52.172;10.548;2022-09-09T14:41:44;1.65;;;0.60;;
53062;SDS011;40529;52.172;10.548;2022-09-09T14:44:10;1.35;;;0.60;;
53062;SDS011;40529;52.172;10.548;2022-09-09T14:46:36;2.92;;;0.70;;
53062;SDS011;40529;52.172;10.548;2022-09-09T14:49:02;2.03;;;0.70;;
53062;SDS011;40529;52.172;10.548;2022-09-09T14:51:29;2.35;;;0.70;;
53062;SDS011;40529;52.172;10.548;2022-09-09T14:53:58;2.10;;;0.80;;
53062;SDS011;40529;52.172;10.548;2022-09-09T14:56:25;2.90;;;0.80;;
53062;SDS011;40529;52.172;10.548;2022-09-09T14:58:55;2.78;;;0.77;;
53062;SDS011;40529;52.172;10.548;2022-09-09T15:01:21;4.45;;;1.10;;
53062;SDS011;40529;52.172;10.548;2022-09-09T15:03:49;4.22;;;1.00;;
53062;SDS011;40529;52.172;10.548;2022-09-09T15:06:15;3.22;;;1.00;;
53062;SDS011;40529;52.172;10.548;2022-09-09T15:08:42;5.38;;;1.25;;
53062;SDS011;40529;52.172;10.548;2022-09-09T15:11:09;3.78;;;0.80;;
53062;SDS011;40529;52.172;10.548;2022-09-09T15:13:35;2.95;;;1.08;;
53062;SDS011;40529;52.172;10.548;2022-09-09T15:16:12;2.35;;;0.82;;
53062;SDS011;40529;52.172;10.548;2022-09-09T15:18:38;5.90;;;0.95;;
53062;SDS011;40529;52.172;10.548;2022-09-09T15:21:14;4.53;;;1.05;;
53062;SDS011;40529;52.172;10.548;2022-09-09T15:23:40;2.38;;;0.90;;
53062;SDS011;40529;52.172;10.548;2022-09-09T15:26:06;3.60;;;0.82;;
53062;SDS011;40529;52.172;10.548;2022-09-09T15:28:33;4.07;;;0.90;;
53062;SDS011;40529;52.172;10.548;2022-09-09T15:31:09;4.57;;;1.10;;
53062;SDS011;40529;52.172;10.548;2022-09-09T15:33:36;8.52;;;1.50;;
53062;SDS011;40529;52.172;10.548;2022-09-09T15:36:21;2.65;;;0.80;;
53062;SDS011;40529;52.172;10.548;2022-09-09T15:38:48;3.50;;;0.93;;
53062;SDS011;40529;52.172;10.548;2022-09-09T15:41:14;5.28;;;1.17;;
53062;SDS011;40529;52.172;10.548;2022-09-09T15:43:44;3.63;;;1.10;;
53062;SDS011;40529;52.172;10.548;2022-09-09T15:48:43;3.65;;;1.00;;
53062;SDS011;40529;52.172;10.548;2022-09-09T15:51:10;4.60;;;1.00;;
53062;SDS011;40529;52.172;10.548;2022-09-09T15:53:37;4.93;;;1.20;;
53062;SDS011;40529;52.172;10.548;2022-09-09T15:56:06;2.63;;;1.10;;
53062;SDS011;40529;52.172;10.548;2022-09-09T15:58:32;2.22;;;0.63;;
53062;SDS011;40529;52.172;10.548;2022-09-09T16:01:03;4.40;;;0.80;;
53062;SDS011;40529;52.172;10.548;2022-09-09T16:03:29;4.18;;;0.80;;
53062;SDS011;40529;52.172;10.548;2022-09-09T16:05:55;3.60;;;1.23;;
53062;SDS011;40529;52.172;10.548;2022-09-09T16:08:21;2.25;;;0.95;;
53062;SDS011;40529;52.172;10.548;2022-09-09T16:10:48;4.05;;;0.90;;
53062;SDS011;40529;52.172;10.548;2022-09-09T16:13:14;4.90;;;1.30;;
53062;SDS011;40529;52.172;10.548;2022-09-09T16:15:40;3.75;;;0.93;;
53062;SDS011;40529;52.172;10.548;2022-09-09T16:18:06;4.97;;;1.23;;
53062;SDS011;40529;52.172;10.548;2022-09-09T16:20:32;3.83;;;0.90;;
53062;SDS011;40529;52.172;10.548;2022-09-09T16:22:58;3.03;;;1.15;;
53062;SDS011;40529;52.172;10.548;2022-09-09T16:25:26;3.00;;;0.80;;
53062;SDS011;40529;52.172;10.548;2022-09-09T16:27:52;4.72;;;1.10;;
53062;SDS011;40529;52.172;10.548;2022-09-09T16:30:18;2.47;;;0.82;;
53062;SDS011;40529;52.172;10.548;2022-09-09T16:32:44;3.00;;;0.93;;
53062;SDS011;40529;52.172;10.548;2022-09-09T16:35:10;2.20;;;0.75;;
53062;SDS011;40529;52.172;10.548;2022-09-09T16:37:36;2.78;;;0.82;;
53062;SDS011;40529;52.172;10.548;2022-09-09T16:40:03;3.72;;;1.08;;
53062;SDS011;40529;52.172;10.548;2022-09-09T16:42:29;2.55;;;0.85;;
53062;SDS011;40529;52.172;10.548;2022-09-09T16:44:55;3.17;;;0.90;;
53062;SDS011;40529;52.172;10.548;2022-09-09T16:47:21;2.97;;;0.73;;
53062;SDS011;40529;52.172;10.548;2022-09-09T16:49:47;5.82;;;1.17;;
53062;SDS011;40529;52.172;10.548;2022-09-09T16:52:13;2.95;;;0.93;;
53062;SDS011;40529;52.172;10.548;2022-09-09T16:54:39;3.58;;;1.00;;
53062;SDS011;40529;52.172;10.548;2022-09-09T16:57:05;2.40;;;0.80;;
53062;SDS011;40529;52.172;10.548;2022-09-09T16:59:31;2.60;;;0.80;;